Time;durP1;ratioP1;P1;durP2;ratioP2;P2;SDS_P1;SDS_P2;PMS_P1;PMS_P2;Temp;Humidity;BMP_temperature;BMP_pressure;BME280_temperature;BME280_humidity;BME280_pressure;Samples;Min_cycle;Max_cycle;Signal;HPM_P1;HPM_P2
2021/12/05 00:21:43;;;;;;;0.10;0.10;;;4.50;99.90;;;4.15;100.00;99178.13;4973260;28;20251;-82
2021/12/05 00:24:19;;;;;;;0.10;0.10;;;4.40;99.90;;;4.15;100.00;99172.03;4992131;28;20210;-82
2021/12/05 00:27:05;;;;;;;0.10;0.10;;;4.40;99.90;;;4.19;100.00;99171.22;4941227;28;20204;-81
2021/12/05 00:32:51;;;;;;;0.50;0.50;;;4.40;99.90;;;4.16;100.00;99179.00;4988803;28;20204;-82
2021/12/05 00:41:05;;;;;;;0.10;0.10;;;4.40;99.90;;;4.25;100.00;99194.84;4978446;28;20232;-82
2021/12/05 00:49:19;;;;;;;0.10;0.10;;;4.50;99.90;;;4.35;100.00;99191.50;4987435;28;20212;-82
2021/12/05 01:11:48;;;;;;;0.20;0.20;;;4.50;99.90;;;4.28;100.00;99181.81;5007921;28;20235;-82
2021/12/05 01:14:51;;;;;;;0.00;0.00;;;4.50;99.90;;;4.24;100.00;99176.50;4984359;28;20207;-82
2021/12/05 01:17:26;;;;;;;0.10;0.10;;;4.40;99.90;;;4.27;100.00;99173.94;4966501;28;20218;-82
2021/12/05 01:19:55;;;;;;;0.10;0.10;;;4.50;99.90;;;4.48;100.00;99177.72;4994965;28;20234;-82
2021/12/05 01:22:27;;;;;;;0.10;0.10;;;4.60;99.90;;;4.55;100.00;99165.59;4962723;28;20220;-82
2021/12/05 01:25:16;;;;;;;0.10;0.10;;;4.70;99.90;;;4.64;100.00;99152.59;4991391;28;20211;-82
2021/12/05 01:28:01;;;;;;;0.10;0.10;;;4.80;99.90;;;4.64;100.00;99150.00;4968378;28;20216;-82
2021/12/05 01:42:04;;;;;;;0.10;0.10;;;4.80;99.90;;;4.54;100.00;99114.09;5014250;28;20620;-81
2021/12/05 01:55:43;;;;;;;0.10;0.10;;;4.70;99.90;;;4.58;100.00;99105.41;4975934;28;20212;-81
2021/12/05 01:58:19;;;;;;;0.10;0.10;;;4.80;99.90;;;4.62;100.00;99107.19;4987572;28;20216;-82
2021/12/05 02:37:19;;;;;;;0.10;0.10;;;4.70;99.90;;;4.48;100.00;99044.22;5001091;28;20204;-82
2021/12/05 02:42:34;;;;;;;0.10;0.10;;;4.80;99.90;;;4.52;100.00;99039.88;4998927;28;20211;-82
2021/12/05 02:45:08;;;;;;;0.10;0.10;;;4.70;99.90;;;4.50;100.00;99044.22;4965901;28;20211;-82
2021/12/05 02:47:48;;;;;;;0.10;0.10;;;4.70;99.90;;;4.50;100.00;99039.00;4984797;28;20203;-82
2021/12/05 02:50:29;;;;;;;0.10;0.10;;;4.60;99.90;;;4.41;100.00;99039.78;4993925;28;20228;-82
2021/12/05 02:53:29;;;;;;;0.10;0.10;;;4.60;99.90;;;4.34;100.00;99040.56;4991800;28;20208;-82
2021/12/05 02:56:19;;;;;;;0.10;0.10;;;4.60;99.90;;;4.27;100.00;99045.72;4998413;28;20215;-82
2021/12/05 02:58:51;;;;;;;0.10;0.10;;;4.50;99.90;;;4.22;100.00;99047.41;4995312;28;20583;-82
2021/12/05 03:01:44;;;;;;;0.10;0.10;;;4.50;99.90;;;4.20;100.00;99054.34;4999651;28;20234;-82
2021/12/05 03:04:12;;;;;;;0.10;0.10;;;4.50;99.90;;;4.17;100.00;99047.34;4938523;28;20221;-82
2021/12/05 03:06:50;;;;;;;0.10;0.10;;;4.40;99.90;;;4.13;100.00;99056.00;4925546;28;20205;-82
2021/12/05 03:09:21;;;;;;;0.10;0.10;;;4.40;99.90;;;4.10;100.00;99048.13;4992663;28;20708;-82
2021/12/05 03:11:54;;;;;;;0.10;0.10;;;4.40;99.90;;;4.08;100.00;99061.19;4996964;28;20237;-82
2021/12/05 03:14:24;;;;;;;0.10;0.10;;;4.30;99.90;;;4.04;100.00;99062.00;4979798;28;20204;-82
2021/12/05 03:16:54;;;;;;;0.10;0.10;;;4.30;99.90;;;4.03;100.00;99068.09;4995620;28;20196;-82
2021/12/05 03:19:24;;;;;;;0.10;0.10;;;4.30;99.90;;;4.03;100.00;99068.09;4979338;28;20204;-82
2021/12/05 03:22:11;;;;;;;0.10;0.10;;;4.20;99.90;;;3.99;100.00;99063.69;4995634;28;20246;-82
2021/12/05 03:24:44;;;;;;;0.10;0.10;;;4.20;99.90;;;4.00;100.00;99067.19;4959812;28;20219;-83
2021/12/05 03:27:13;;;;;;;0.10;0.10;;;4.20;99.90;;;3.94;100.00;99067.09;4962253;28;20223;-82
2021/12/05 03:29:41;;;;;;;0.20;0.20;;;4.20;99.90;;;3.94;100.00;99070.59;4997151;28;20220;-82
2021/12/05 03:32:28;;;;;;;0.10;0.10;;;4.20;99.90;;;3.93;100.00;99070.56;4997739;28;20239;-82
2021/12/05 03:35:09;;;;;;;0.10;0.10;;;4.20;99.90;;;3.93;100.00;99071.44;4998310;28;20204;-82
2021/12/05 03:37:40;;;;;;;0.10;0.10;;;4.20;99.90;;;3.92;100.00;99084.50;4992919;28;20218;-82
2021/12/05 03:40:31;;;;;;;0.10;0.10;;;4.10;99.90;;;3.84;100.00;99069.56;4985795;28;20234;-82
2021/12/05 03:43:09;;;;;;;0.10;0.10;;;4.10;99.90;;;3.81;100.00;99081.69;4981796;28;20203;-82
2021/12/05 03:45:43;;;;;;;0.10;0.10;;;4.00;99.90;;;3.79;100.00;99086.91;4982122;28;20196;-82
2021/12/05 03:48:14;;;;;;;0.10;0.10;;;4.00;99.90;;;3.79;100.00;99096.50;4962806;28;20207;-81
2021/12/05 03:50:44;;;;;;;0.10;0.10;;;4.00;99.90;;;3.76;100.00;99096.44;4984917;28;20223;-82
2021/12/05 03:53:15;;;;;;;0.10;0.10;;;4.00;99.90;;;3.71;100.00;99098.13;4980557;28;20211;-82
2021/12/05 03:55:46;;;;;;;0.10;0.10;;;4.00;99.90;;;3.69;100.00;99110.28;4983927;28;20200;-81
2021/12/05 03:58:18;;;;;;;0.10;0.10;;;3.90;99.90;;;3.64;100.00;99109.34;4967046;28;20208;-82
2021/12/05 04:00:55;;;;;;;0.10;0.10;;;3.90;99.90;;;3.55;100.00;99102.22;4996060;28;20231;-81
2021/12/05 04:03:36;;;;;;;0.10;0.10;;;3.80;99.90;;;3.53;100.00;99107.44;4997423;28;20419;-82
2021/12/05 04:06:09;;;;;;;0.10;0.10;;;3.80;99.90;;;3.52;100.00;99110.91;4979870;28;20222;-81
2021/12/05 04:08:59;;;;;;;0.10;0.10;;;3.70;99.90;;;3.49;100.00;99104.75;4992702;28;20215;-82
2021/12/05 04:11:59;;;;;;;0.10;0.10;;;3.70;99.90;;;3.46;100.00;99116.03;4993922;28;20235;-82
2021/12/05 04:14:43;;;;;;;0.10;0.10;;;3.70;99.90;;;3.45;100.00;99108.16;4998208;28;20208;-81
2021/12/05 04:17:28;;;;;;;0.10;0.10;;;3.70;99.90;;;3.40;100.00;99105.47;4996410;28;20203;-81
2021/12/05 04:20:18;;;;;;;0.10;0.10;;;3.70;99.90;;;3.42;100.00;99114.22;4984364;28;20242;-81
2021/12/05 04:23:06;;;;;;;0.10;0.10;;;3.60;99.90;;;3.40;100.00;99118.53;5006039;28;20218;-81
2021/12/05 04:25:38;;;;;;;0.10;0.10;;;3.60;99.90;;;3.39;100.00;99115.91;4967587;28;20219;-82
2021/12/05 04:28:09;;;;;;;0.10;0.10;;;3.60;99.90;;;3.39;100.00;99121.13;4983240;28;20216;-81
2021/12/05 04:30:38;;;;;;;0.10;0.10;;;3.60;99.90;;;3.35;100.00;99121.94;5003336;28;20223;-81
2021/12/05 04:33:06;;;;;;;0.10;0.10;;;3.60;99.90;;;3.33;100.00;99121.91;4983634;28;20246;-81
2021/12/05 04:35:43;;;;;;;0.10;0.10;;;3.60;99.90;;;3.34;100.00;99122.78;4983454;28;20204;-81
2021/12/05 04:38:26;;;;;;;0.00;0.00;;;3.50;99.90;;;3.32;100.00;99119.28;4991354;28;20203;-82
2021/12/05 04:40:57;;;;;;;0.10;0.10;;;3.50;99.90;;;3.27;100.00;99116.59;4984186;28;20223;-81
2021/12/05 04:43:26;;;;;;;0.10;0.10;;;3.50;99.90;;;3.25;100.00;99120.03;4993601;28;20205;-81
2021/12/05 04:45:54;;;;;;;0.10;0.10;;;3.50;99.90;;;3.22;100.00;99129.56;5000509;28;20208;-81
2021/12/05 04:48:22;;;;;;;0.10;0.10;;;3.40;99.90;;;3.22;100.00;99123.47;4987402;28;20208;-81
2021/12/05 04:50:50;;;;;;;0.10;0.10;;;3.40;99.90;;;3.22;100.00;99126.94;4971426;28;20234;-81
2021/12/05 04:53:39;;;;;;;0.00;0.00;;;3.40;99.90;;;3.21;100.00;99126.94;5007491;28;20239;-81
2021/12/05 04:56:10;;;;;;;0.10;0.10;;;3.40;99.90;;;3.19;100.00;99129.50;4970143;28;20204;-81
2021/12/05 04:58:38;;;;;;;0.10;0.10;;;3.40;99.90;;;3.18;100.00;99127.75;4989774;28;20204;-82
2021/12/05 05:01:08;;;;;;;0.10;0.10;;;3.40;99.90;;;3.12;100.00;99122.41;4985528;28;20221;-81
2021/12/05 05:03:37;;;;;;;0.10;0.10;;;3.30;99.90;;;3.04;100.00;99116.19;4986588;28;20208;-81
2021/12/05 05:06:25;;;;;;;0.10;0.10;;;3.30;99.90;;;2.98;100.00;99121.28;4991873;28;20585;-81
2021/12/05 05:09:12;;;;;;;0.10;0.10;;;3.20;99.90;;;2.91;100.00;99111.59;5006097;28;20236;-81
2021/12/05 05:11:41;;;;;;;0.10;0.10;;;3.10;99.90;;;2.85;100.00;99117.59;4984081;28;20403;-81
2021/12/05 05:14:14;;;;;;;0.10;0.10;;;3.10;99.90;;;2.82;100.00;99112.31;5000901;28;20203;-81
2021/12/05 05:16:47;;;;;;;0.10;0.10;;;3.10;99.90;;;2.80;100.00;99121.84;4986373;28;20200;-81
2021/12/05 05:19:17;;;;;;;0.10;0.10;;;3.00;99.90;;;2.77;100.00;99121.78;4976025;28;20211;-81
2021/12/05 05:22:04;;;;;;;0.10;0.10;;;3.00;99.90;;;2.79;100.00;99122.69;5004205;28;20231;-81
2021/12/05 05:42:13;;;;;;;0.10;0.10;;;2.80;99.90;;;2.56;100.00;99103.94;4993120;28;20336;-81
2021/12/05 05:52:15;;;;;;;0.10;0.10;;;2.70;99.90;;;2.51;100.00;99097.75;4984087;28;20227;-81
2021/12/05 05:54:56;;;;;;;0.10;0.10;;;2.70;99.90;;;2.49;100.00;99093.34;4997581;28;20214;-81
2021/12/05 05:58:02;;;;;;;0.08;0.08;;;2.70;99.90;;;2.52;100.00;99103.84;4946565;28;20571;-81
2021/12/05 06:00:50;;;;;;;0.10;0.10;;;2.80;99.90;;;2.54;100.00;99104.78;4972272;28;20239;-80
2021/12/05 06:03:21;;;;;;;0.10;0.10;;;2.70;99.90;;;2.49;100.00;99104.69;4999577;28;20284;-82
2021/12/05 06:06:06;;;;;;;0.00;0.00;;;2.70;99.90;;;2.47;100.00;99101.16;4983069;28;20208;-81
2021/12/05 06:08:38;;;;;;;0.10;0.10;;;2.70;99.90;;;2.48;100.00;99112.47;4990371;28;20231;-81
2021/12/05 06:11:25;;;;;;;0.10;0.10;;;2.70;99.90;;;2.41;100.00;99108.00;4991100;28;20239;-80
2021/12/05 06:13:53;;;;;;;0.10;0.10;;;2.70;99.90;;;2.42;100.00;99114.97;4962645;28;20227;-80
2021/12/05 06:16:22;;;;;;;0.10;0.10;;;2.70;99.90;;;2.44;100.00;99127.19;4997243;28;20230;-81
2021/12/05 06:18:51;;;;;;;0.10;0.10;;;2.60;99.90;;;2.42;100.00;99126.28;5001317;28;20563;-81
2021/12/05 06:21:21;;;;;;;0.10;0.10;;;2.70;99.90;;;2.41;100.00;99139.28;5016795;23;20232;-80
2021/12/05 06:23:49;;;;;;;0.10;0.10;;;2.70;99.90;;;2.47;100.00;99158.56;4991527;28;20258;-77
2021/12/05 06:26:23;;;;;;;0.10;0.10;;;2.70;99.90;;;2.54;100.00;99162.19;5022720;28;20211;-77
2021/12/05 06:42:50;;;;;;;0.10;0.10;;;2.90;99.90;;;2.73;100.00;99173.91;4969582;28;20208;-77
2021/12/05 06:48:07;;;;;;;0.00;0.00;;;2.90;99.90;;;2.73;100.00;99173.91;4953096;28;20220;-78
2021/12/05 06:50:49;;;;;;;0.10;0.10;;;2.90;99.90;;;2.71;100.00;99173.88;5004027;28;20236;-77
2021/12/05 06:53:19;;;;;;;0.00;0.00;;;2.90;99.90;;;2.67;100.00;99169.44;5002255;28;20240;-78
2021/12/05 06:55:47;;;;;;;0.10;0.10;;;2.90;99.90;;;2.63;100.00;99165.00;4941176;28;20216;-77
2021/12/05 06:58:15;;;;;;;0.10;0.10;;;2.80;99.90;;;2.62;100.00;99175.41;4989123;28;20204;-77
2021/12/05 07:00:48;;;;;;;0.10;0.10;;;2.80;99.90;;;2.58;100.00;99174.44;4988470;28;20232;-79
2021/12/05 07:03:16;;;;;;;0.10;0.10;;;2.80;99.90;;;2.56;100.00;99181.34;4941368;28;20220;-77
2021/12/05 07:08:22;;;;;;;0.10;0.10;;;2.80;99.90;;;2.58;100.00;99196.19;5022064;28;20212;-78
2021/12/05 07:11:10;;;;;;;0.10;0.10;;;2.80;99.90;;;2.62;100.00;99209.34;4950561;28;20236;-77
2021/12/05 07:16:52;;;;;;;0.10;0.10;;;2.80;99.90;;;2.66;100.00;99212.03;4974276;28;20232;-77
2021/12/05 07:21:52;;;;;;;0.10;0.10;;;2.90;99.90;;;2.70;100.00;99216.47;4971908;28;20232;-77
2021/12/05 07:24:45;;;;;;;0.10;0.10;;;2.90;99.90;;;2.74;100.00;99222.66;4973789;28;20706;-77
2021/12/05 07:41:48;;;;;;;0.00;0.00;;;2.80;99.90;;;2.58;100.00;99205.75;5005959;28;20623;-77
2021/12/05 07:44:20;;;;;;;0.10;0.10;;;2.80;99.90;;;2.53;100.00;99204.78;4956517;28;20216;-78
2021/12/05 07:46:49;;;;;;;0.10;0.10;;;2.80;99.90;;;2.50;100.00;99207.31;4952276;28;20211;-77
2021/12/05 07:49:17;;;;;;;0.40;0.40;;;2.70;99.90;;;2.52;100.00;99216.06;5010131;28;20204;-77
2021/12/05 07:51:54;;;;;;;0.10;0.10;;;2.80;99.90;;;2.57;100.00;99228.34;4999298;28;20227;-78
2021/12/05 07:54:40;;;;;;;0.10;0.10;;;2.80;99.90;;;2.57;100.00;99235.31;4960135;28;20231;-78
2021/12/05 07:57:29;;;;;;;0.10;0.10;;;2.80;99.90;;;2.52;100.00;99219.56;4958747;28;20208;-77
2021/12/05 08:00:25;;;;;;;0.10;0.10;;;2.70;99.90;;;2.49;100.00;99223.81;4978928;28;20595;-77
2021/12/05 08:17:02;;;;;;;0.10;0.10;;;2.90;99.90;;;2.71;100.00;99248.69;4956839;28;20574;-78
2021/12/05 08:19:30;;;;;;;0.10;0.10;;;2.90;99.90;;;2.71;100.00;99246.97;4957367;28;20201;-77
2021/12/05 08:21:58;;;;;;;0.10;0.10;;;3.00;99.90;;;2.75;100.00;99248.78;4941859;28;20243;-77
2021/12/05 08:24:47;;;;;;;0.10;0.10;;;3.00;99.90;;;2.79;100.00;99253.22;4967117;28;20568;-77
2021/12/05 08:27:16;;;;;;;0.10;0.10;;;3.00;99.90;;;2.87;100.00;99262.09;4977284;28;20255;-77
2021/12/05 08:29:53;;;;;;;0.10;0.10;;;3.10;99.90;;;2.92;100.00;99264.78;4977282;28;20199;-77
2021/12/05 08:32:58;;;;;;;0.10;0.10;;;3.20;99.90;;;2.95;100.00;99270.09;4965600;28;20212;-77
2021/12/05 08:43:52;;;;;;;0.00;0.00;;;3.10;99.90;;;2.90;100.00;99263.88;4955562;28;20568;-77
2021/12/05 09:20:54;;;;;;;0.08;0.08;;;3.80;99.90;;;3.57;100.00;99283.47;4976625;28;20228;-78
2021/12/05 10:02:08;;;;;;;0.10;0.10;;;4.40;99.90;;;4.20;100.00;99303.78;4961310;28;20266;-78
2021/12/05 10:07:58;;;;;;;0.10;0.10;;;4.50;99.90;;;4.34;100.00;99307.50;4961007;28;20205;-78
2021/12/05 10:10:37;;;;;;;0.10;0.10;;;4.60;99.90;;;4.38;100.00;99309.31;5002516;28;20231;-78
2021/12/05 10:38:55;;;;;;;0.10;0.10;;;4.80;99.90;;;4.70;100.00;99286.22;4970171;28;20204;-78
2021/12/05 10:41:48;;;;;;;0.10;0.10;;;4.90;99.90;;;4.89;100.00;99283.84;4948405;28;20248;-78
2021/12/05 10:44:21;;;;;;;0.10;0.10;;;5.10;99.90;;;5.05;100.00;99275.34;4956099;28;20204;-78
2021/12/05 10:46:51;;;;;;;0.10;0.10;;;5.30;99.90;;;5.20;100.00;99287.75;4964430;28;20212;-78
2021/12/05 10:49:25;;;;;;;0.10;0.10;;;5.30;99.90;;;5.17;100.00;99282.47;4981616;28;20208;-78
2021/12/05 10:51:57;;;;;;;0.10;0.10;;;5.40;99.90;;;5.35;100.00;99288.84;4970825;28;20217;-78
2021/12/05 10:54:28;;;;;;;0.10;0.10;;;5.50;99.90;;;5.29;100.00;99266.91;4944403;28;20219;-78
2021/12/05 10:57:06;;;;;;;0.10;0.10;;;5.60;99.90;;;5.56;100.00;99282.94;4958707;28;20196;-78
2021/12/05 10:59:40;;;;;;;0.10;0.10;;;5.80;99.90;;;5.66;100.00;99273.44;4946158;28;20201;-79
2021/12/05 11:02:37;;;;;;;0.10;0.10;;;2.70;99.90;;;5.79;100.00;99265.69;4994082;28;20221;-78
2021/12/05 11:05:14;;;;;;;0.10;0.10;;;6.00;99.90;;;5.91;100.00;99264.09;4956253;28;20212;-78
2021/12/05 11:07:49;;;;;;;0.10;0.10;;;6.00;99.90;;;5.85;100.00;99250.88;4958372;28;20208;-78
2021/12/05 11:10:43;;;;;;;0.10;0.10;;;6.00;99.90;;;5.94;100.00;99244.00;4980312;28;20239;-78
2021/12/05 11:13:27;;;;;;;0.00;0.00;;;6.10;99.90;;;5.95;100.00;99239.63;4960261;28;20208;-78
2021/12/05 11:16:43;;;;;;;0.00;0.00;;;6.10;99.90;;;5.80;100.00;99224.59;4987885;28;20224;-78
2021/12/05 11:19:21;;;;;;;0.10;0.10;;;6.10;99.90;;;5.82;100.00;99229.88;5020077;28;20193;-78
2021/12/05 11:22:03;;;;;;;0.00;0.00;;;6.00;99.90;;;5.68;100.00;99214.00;4940028;28;20262;-78
2021/12/05 11:25:01;;;;;;;0.10;0.10;;;6.00;99.90;;;5.66;100.00;99207.88;4993108;28;20197;-78
2021/12/05 11:27:53;;;;;;;0.10;0.10;;;5.90;99.90;;;5.43;100.00;99187.56;4977797;28;20247;-78
2021/12/05 11:30:33;;;;;;;0.10;0.10;;;5.80;99.90;;;5.49;100.00;99193.72;4985925;28;20228;-78
2021/12/05 11:33:18;;;;;;;0.10;0.10;;;5.80;99.90;;;5.49;100.00;99196.34;4936609;28;20224;-79
2021/12/05 11:35:56;;;;;;;0.10;0.10;;;5.70;99.90;;;5.40;100.00;99181.41;5000552;28;20702;-78
2021/12/05 11:38:38;;;;;;;0.10;0.10;;;5.70;99.90;;;5.42;100.00;99192.78;4986561;28;20204;-78
2021/12/05 11:41:15;;;;;;;0.00;0.00;;;5.60;99.90;;;5.38;100.00;99181.38;4941205;28;20259;-78
2021/12/05 11:43:57;;;;;;;0.10;0.10;;;5.70;99.90;;;5.43;100.00;99184.94;4942494;28;20226;-78
2021/12/05 11:46:27;;;;;;;0.10;0.10;;;5.70;99.90;;;5.46;100.00;99191.94;4976402;28;20217;-78
2021/12/05 11:48:59;;;;;;;0.10;0.10;;;5.60;99.90;;;5.44;100.00;99189.31;4972824;28;20197;-78
2021/12/05 11:51:44;;;;;;;0.10;0.10;;;5.60;99.90;;;5.38;100.00;99185.75;4958809;28;20220;-78
2021/12/05 11:54:29;;;;;;;0.10;0.10;;;5.60;99.90;;;5.39;100.00;99177.03;4936227;28;20667;-78
2021/12/05 11:57:36;;;;;;;0.10;0.10;;;5.60;99.90;;;5.45;100.00;99182.31;4998390;28;20216;-78
2021/12/05 12:00:17;;;;;;;0.10;0.10;;;5.60;99.90;;;5.47;100.00;99178.84;4973797;28;20200;-78
2021/12/05 12:02:47;;;;;;;0.08;0.08;;;5.70;99.90;;;5.46;100.00;99173.59;5005801;28;20659;-78
2021/12/05 12:05:31;;;;;;;0.10;0.10;;;5.60;99.90;;;5.40;100.00;99158.69;4980693;28;20205;-78
2021/12/05 12:08:17;;;;;;;0.10;0.10;;;5.60;99.90;;;5.46;100.00;99156.13;4984688;28;20220;-78
2021/12/05 12:10:58;;;;;;;0.20;0.20;;;5.70;99.90;;;5.60;100.00;99164.09;4969969;28;20232;-78
2021/12/05 12:13:40;;;;;;;0.10;0.10;;;5.80;99.90;;;5.68;100.00;99174.66;4945565;28;20205;-78
2021/12/05 12:16:12;;;;;;;0.10;0.10;;;5.80;99.90;;;5.66;100.00;99168.53;4969354;28;20232;-78
2021/12/05 12:18:48;;;;;;;0.10;0.10;;;5.80;99.90;;;5.68;100.00;99185.16;4981430;28;20215;-78
2021/12/05 12:21:33;;;;;;;0.10;0.10;;;5.90;99.90;;;5.70;100.00;99199.16;5039761;23;20237;-79
2021/12/05 12:24:03;;;;;;;0.10;0.10;;;5.90;99.90;;;5.73;100.00;99207.06;5018758;28;20199;-80
2021/12/05 12:26:38;;;;;;;0.10;0.10;;;6.00;99.90;;;5.70;100.00;99196.53;5042463;28;20201;-79
2021/12/05 12:29:12;;;;;;;0.03;0.03;;;5.90;99.90;;;5.71;100.00;99195.66;5000798;28;20206;-82
2021/12/05 12:31:44;;;;;;;0.10;0.10;;;5.90;99.90;;;5.65;100.00;99196.50;4984989;28;20217;-79
2021/12/05 12:34:23;;;;;;;0.10;0.10;;;5.90;99.90;;;5.67;100.00;99188.66;5000946;28;20214;-80
2021/12/05 12:37:02;;;;;;;0.00;0.00;;;5.80;99.90;;;5.60;100.00;99176.34;5040184;28;20231;-80
2021/12/05 12:39:52;;;;;;;0.10;0.10;;;5.80;99.90;;;5.57;100.00;99158.84;4991053;28;20209;-79
2021/12/05 12:42:26;;;;;;;0.10;0.10;;;5.80;99.90;;;5.59;100.00;99158.84;5020256;28;20581;-79
2021/12/05 12:45:17;;;;;;;0.10;0.10;;;5.80;99.90;;;5.56;100.00;99151.84;5003638;28;20669;-79
2021/12/05 12:47:54;;;;;;;0.10;0.10;;;5.70;99.90;;;5.56;100.00;99158.81;5008604;28;20199;-79
2021/12/05 12:50:36;;;;;;;0.10;0.10;;;5.70;99.90;;;5.48;100.00;99143.03;5021845;28;20218;-79
2021/12/05 12:53:12;;;;;;;0.10;0.10;;;5.70;99.90;;;5.49;100.00;99159.63;5023368;28;20211;-79
2021/12/05 12:55:50;;;;;;;0.10;0.10;;;5.70;99.90;;;5.53;100.00;99164.91;5022855;28;20242;-80
2021/12/05 12:58:42;;;;;;;0.10;0.10;;;5.80;99.90;;;5.64;100.00;99186.00;5005939;28;20222;-79
2021/12/05 13:01:20;;;;;;;0.10;0.10;;;5.90;99.90;;;5.81;100.00;99207.13;5027593;28;20223;-79
2021/12/05 13:04:29;;;;;;;0.10;0.10;;;6.00;99.90;;;5.78;100.00;99187.88;5028869;28;20210;-80
2021/12/05 13:10:26;;;;;;;0.10;0.10;;;6.00;99.90;;;5.89;100.00;99163.47;4935333;28;20217;-80
2021/12/05 13:13:23;;;;;;;0.10;0.10;;;6.10;99.90;;;6.07;100.00;99180.25;5029491;28;20211;-83
2021/12/05 13:16:13;;;;;;;0.10;0.10;;;6.20;99.90;;;6.09;100.00;99170.63;5009903;28;20226;-78
2021/12/05 13:18:48;;;;;;;0.10;0.10;;;6.40;99.90;;;6.24;100.00;99171.59;5034768;28;20221;-79
2021/12/05 13:21:31;;;;;;;0.03;0.03;;;6.40;99.90;;;6.16;100.00;99140.06;4999227;28;20234;-81
2021/12/05 13:24:26;;;;;;;0.10;0.10;;;6.50;99.90;;;6.38;100.00;99149.81;5024065;28;20214;-80
2021/12/05 13:27:08;;;;;;;0.03;0.03;;;6.60;99.90;;;6.49;100.00;99148.97;5005053;28;20206;-80
2021/12/05 13:29:59;;;;;;;0.10;0.10;;;6.60;99.90;;;6.31;100.00;99120.88;5020814;28;20226;-80
2021/12/05 13:32:30;;;;;;;0.10;0.10;;;6.60;99.90;;;6.30;100.00;99112.13;4995466;28;20965;-80
2021/12/05 13:35:08;;;;;;;0.10;0.10;;;6.60;99.90;;;6.43;100.00;99126.19;5016747;28;20202;-81
2021/12/05 13:37:56;;;;;;;0.10;0.10;;;6.70;99.90;;;6.40;100.00;99119.19;5031819;28;20201;-83
2021/12/05 13:40:27;;;;;;;0.10;0.10;;;6.70;99.90;;;6.60;100.00;99142.94;5002117;28;20202;-81
2021/12/05 13:43:07;;;;;;;0.10;0.10;;;6.80;99.90;;;6.73;100.00;99130.72;4993973;28;20210;-85
2021/12/05 13:45:57;;;;;;;0.10;0.10;;;7.00;99.90;;;6.79;100.00;99125.50;5027843;28;20216;-80
2021/12/05 13:48:29;;;;;;;0.10;0.10;;;7.00;99.90;;;6.85;100.00;99124.63;5026902;28;20211;-80
2021/12/05 13:51:04;;;;;;;0.10;0.10;;;7.10;99.90;;;6.58;100.00;99079.03;5006991;28;20227;-80
2021/12/05 13:53:44;;;;;;;0.10;0.10;;;6.90;99.90;;;6.32;100.00;99057.88;5028690;28;20206;-81
2021/12/05 13:56:29;;;;;;;0.10;0.10;;;6.60;99.90;;;6.31;100.00;99084.13;5017428;28;20233;-80
2021/12/05 13:59:04;;;;;;;0.10;0.10;;;6.60;99.90;;;6.25;100.00;99084.09;5005864;28;20206;-80
2021/12/05 14:01:45;;;;;;;0.00;0.00;;;6.50;99.90;;;6.16;100.00;99074.44;5019483;28;20222;-80
2021/12/05 14:04:18;;;;;;;0.08;0.08;;;6.40;99.90;;;6.05;100.00;99068.25;5031876;28;20215;-80
2021/12/05 14:07:10;;;;;;;0.10;0.10;;;6.40;99.90;;;6.06;100.00;99089.25;5048409;28;20213;-81
2021/12/05 14:09:51;;;;;;;0.10;0.10;;;6.40;99.90;;;6.28;100.00;99123.50;5023573;28;20279;-80
2021/12/05 14:12:30;;;;;;;0.10;0.10;;;6.50;99.90;;;6.46;100.00;99138.47;5025977;28;20226;-80
2021/12/05 14:15:05;;;;;;;0.10;0.10;;;6.60;99.90;;;6.28;100.00;99113.88;5025477;28;20211;-79
2021/12/05 14:17:44;;;;;;;0.10;0.10;;;6.70;99.90;;;6.05;100.00;99099.75;5011690;28;20218;-80
2021/12/05 14:20:20;;;;;;;0.10;0.10;;;6.50;99.90;;;6.07;100.00;99133.00;5006661;28;20217;-80
2021/12/05 14:23:07;;;;;;;0.10;0.10;;;6.40;99.90;;;6.22;100.00;99170.72;5043514;28;20687;-79
2021/12/05 14:25:39;;;;;;;0.10;0.10;;;6.40;99.90;;;6.24;100.00;99180.34;5005028;28;20199;-79
2021/12/05 14:28:10;;;;;;;0.10;0.10;;;6.50;99.90;;;6.21;100.00;99182.97;4987546;28;20575;-79
2021/12/05 14:30:40;;;;;;;0.10;0.10;;;6.40;99.90;;;6.12;100.00;99179.41;5016852;28;20204;-79
2021/12/05 14:33:15;;;;;;;0.10;0.10;;;6.40;99.90;;;6.09;100.00;99175.00;5005602;28;20226;-79
2021/12/05 14:35:44;;;;;;;0.00;0.00;;;6.40;99.90;;;5.84;100.00;99160.81;5009067;28;20211;-79
2021/12/05 14:38:14;;;;;;;0.10;0.10;;;6.30;99.90;;;5.78;100.00;99176.50;5009830;28;20239;-80
2021/12/05 14:40:43;;;;;;;0.10;0.10;;;6.30;99.90;;;5.66;100.00;99179.91;5022084;28;20225;-80
2021/12/05 14:43:24;;;;;;;0.10;0.10;;;6.20;99.90;;;5.63;100.00;99192.09;5002890;28;20211;-79
2021/12/05 14:46:01;;;;;;;0.10;0.10;;;5.90;99.90;;;5.55;100.00;99196.41;4995717;28;20703;-80
2021/12/05 14:48:30;;;;;;;0.10;0.10;;;5.90;99.90;;;5.50;100.00;99200.72;5020115;28;20211;-80
2021/12/05 14:51:01;;;;;;;0.30;0.30;;;5.90;99.90;;;5.41;100.00;99196.28;5022301;28;20230;-80
2021/12/05 14:53:30;;;;;;;0.10;0.10;;;5.80;99.90;;;5.38;100.00;99204.09;5036124;28;20583;-80
2021/12/05 14:56:00;;;;;;;0.10;0.10;;;5.80;99.90;;;5.32;100.00;99206.66;5017016;28;20211;-80
2021/12/05 14:58:30;;;;;;;0.00;0.00;;;5.70;99.90;;;5.17;100.00;99204.72;5010301;28;20270;-80
2021/12/05 15:01:00;;;;;;;0.10;0.10;;;5.60;99.90;;;5.16;100.00;99216.06;5015300;28;20226;-80
2021/12/05 15:03:30;;;;;;;0.10;0.10;;;5.60;99.90;;;5.13;100.00;99221.28;5001349;28;20221;-79
2021/12/05 15:06:04;;;;;;;0.00;0.00;;;5.60;99.90;;;5.08;100.00;99225.59;5039515;28;20210;-79
2021/12/05 15:08:35;;;;;;;0.10;0.10;;;5.40;99.90;;;4.95;100.00;99221.06;5025953;28;20203;-79
2021/12/05 15:11:08;;;;;;;0.10;0.10;;;5.40;99.90;;;4.98;100.00;99232.47;4995227;28;20230;-80
2021/12/05 15:13:37;;;;;;;0.10;0.10;;;5.30;99.90;;;5.17;100.00;99265.00;5030140;28;20210;-79
2021/12/05 15:16:05;;;;;;;0.10;0.10;;;5.40;99.90;;;5.30;100.00;99280.03;5011582;28;20207;-80
2021/12/05 15:18:34;;;;;;;0.00;0.00;;;5.50;99.90;;;5.18;100.00;99264.13;5003962;28;20237;-80
2021/12/05 15:21:13;;;;;;;0.10;0.10;;;5.60;99.90;;;4.99;100.00;99260.41;4993634;28;20234;-80
2021/12/05 15:23:44;;;;;;;0.10;0.10;;;5.40;99.90;;;4.94;100.00;99275.19;5016213;28;20563;-80
2021/12/05 15:26:15;;;;;;;0.10;0.10;;;5.30;99.90;;;4.87;100.00;99275.09;5013532;28;20207;-80
2021/12/05 15:28:44;;;;;;;0.10;0.10;;;5.20;99.90;;;4.88;100.00;99282.97;5003129;28;20199;-79
2021/12/05 15:31:12;;;;;;;0.10;0.10;;;5.20;99.90;;;4.85;100.00;99287.31;5006395;28;20223;-80
2021/12/05 15:33:41;;;;;;;0.10;0.10;;;5.20;99.90;;;4.78;100.00;99284.59;5009255;28;20194;-80
2021/12/05 15:36:09;;;;;;;0.10;0.10;;;5.10;99.90;;;4.70;100.00;99282.72;5004925;28;20214;-80
2021/12/05 15:38:37;;;;;;;0.10;0.10;;;5.10;99.90;;;4.63;100.00;99286.13;5013332;28;20212;-79
2021/12/05 15:41:10;;;;;;;0.10;0.10;;;5.00;99.90;;;4.48;100.00;99278.94;5016368;28;20223;-79
2021/12/05 15:43:42;;;;;;;0.10;0.10;;;4.80;99.90;;;4.40;100.00;99284.03;4994455;28;20211;-79
2021/12/05 15:46:13;;;;;;;0.10;0.10;;;4.80;99.90;;;4.35;100.00;99293.56;5008159;28;20209;-79
2021/12/05 15:48:47;;;;;;;0.10;0.10;;;4.70;99.90;;;4.35;100.00;99309.28;5027550;28;20937;-79
2021/12/05 15:51:16;;;;;;;0.10;0.10;;;4.70;99.90;;;4.27;100.00;99304.78;5027099;28;20402;-80
2021/12/05 15:53:47;;;;;;;0.10;0.10;;;4.60;99.90;;;4.28;100.00;99314.38;5014351;28;20203;-80
2021/12/05 15:56:18;;;;;;;0.10;0.10;;;4.60;99.90;;;4.24;100.00;99315.19;5025946;28;20198;-80
2021/12/05 15:59:02;;;;;;;0.10;0.10;;;4.60;99.90;;;4.17;100.00;99315.09;5024939;28;20226;-79
2021/12/05 16:01:31;;;;;;;0.10;0.10;;;4.60;99.90;;;4.26;100.00;99330.06;5025469;28;20223;-80
2021/12/05 16:04:04;;;;;;;0.00;0.00;;;4.50;99.90;;;4.24;100.00;99328.28;5006962;28;20237;-79
2021/12/05 16:06:42;;;;;;;0.10;0.10;;;4.60;99.90;;;4.25;100.00;99330.91;5044077;28;20190;-79
2021/12/05 16:09:20;;;;;;;0.10;0.10;;;4.50;99.90;;;4.18;100.00;99322.09;5021396;28;20215;-80
2021/12/05 16:11:51;;;;;;;0.10;0.10;;;4.50;99.90;;;4.19;100.00;99322.97;5009500;28;20221;-80
2021/12/05 16:14:36;;;;;;;0.10;0.10;;;4.40;99.90;;;4.24;100.00;99330.88;5023755;28;20208;-80
2021/12/05 16:17:16;;;;;;;0.32;0.32;;;4.40;99.90;;;4.22;100.00;99330.88;5009904;28;20227;-80